Time;durP1;ratioP1;P1;durP2;ratioP2;P2;SDS_P1;SDS_P2;PMS_P1;PMS_P2;Temp;Humidity;BMP_temperature;BMP_pressure;BME280_temperature;BME280_humidity;BME280_pressure;Samples;Min_cycle;Max_cycle;Signal;HPM_P1;HPM_P2
2024/01/05 00:01:31;;;;;;;1.50;0.73;;;;;;;;;;5036851;28;20021;-73
2024/01/05 00:03:56;;;;;;;0.80;0.80;;;;;;;;;;5037784;28;20033;-73
2024/01/05 00:06:22;;;;;;;1.13;0.82;;;;;;;;;;5055342;28;20091;-73
2024/01/05 00:08:47;;;;;;;1.67;0.80;;;;;;;;;;5055044;28;20079;-73
2024/01/05 00:11:17;;;;;;;0.82;0.82;;;;;;;;;;5054065;28;20028;-73
2024/01/05 00:13:43;;;;;;;1.55;0.73;;;;;;;;;;5054096;28;20025;-73
2024/01/05 00:16:18;;;;;;;1.23;0.90;;;;;;;;;;5053904;28;20025;-73
2024/01/05 00:18:44;;;;;;;1.52;0.77;;;;;;;;;;5053100;28;20025;-73
2024/01/05 00:21:18;;;;;;;0.70;0.70;;;;;;;;;;5053820;28;20421;-74
2024/01/05 00:23:43;;;;;;;1.80;1.00;;;;;;;;;;5037330;28;20037;-74
2024/01/05 00:26:09;;;;;;;0.95;0.80;;;;;;;;;;5055711;28;20079;-74
2024/01/05 00:28:34;;;;;;;0.90;0.85;;;;;;;;;;5073534;28;20025;-74
2024/01/05 00:31:00;;;;;;;1.40;1.00;;;;;;;;;;5055601;28;20094;-74
2024/01/05 00:33:26;;;;;;;1.35;0.90;;;;;;;;;;5073240;28;20479;-74
2024/01/05 00:35:51;;;;;;;0.90;0.90;;;;;;;;;;5073290;28;20036;-74
2024/01/05 00:38:17;;;;;;;0.90;0.85;;;;;;;;;;5073675;28;20032;-74
2024/01/05 00:40:42;;;;;;;1.02;0.73;;;;;;;;;;5073636;28;20013;-74
2024/01/05 00:43:08;;;;;;;1.00;0.80;;;;;;;;;;5055631;28;20050;-74
2024/01/05 00:45:33;;;;;;;1.00;0.88;;;;;;;;;;5055488;28;20386;-74
2024/01/05 00:47:59;;;;;;;1.33;0.63;;;;;;;;;;5074285;28;20034;-74
2024/01/05 00:50:25;;;;;;;1.00;0.68;;;;;;;;;;5074020;28;20090;-74
2024/01/05 00:52:51;;;;;;;1.38;0.90;;;;;;;;;;5055859;28;20025;-74
2024/01/05 00:55:16;;;;;;;0.73;0.70;;;;;;;;;;5056566;28;20064;-74
2024/01/05 00:57:42;;;;;;;0.75;0.75;;;;;;;;;;5074178;28;20067;-74
2024/01/05 01:00:09;;;;;;;0.70;0.60;;;;;;;;;;5055940;28;20024;-74
2024/01/05 01:02:36;;;;;;;0.63;0.63;;;;;;;;;;5056813;28;20044;-74
2024/01/05 01:05:01;;;;;;;0.70;0.70;;;;;;;;;;5074394;28;20103;-74
2024/01/05 01:07:26;;;;;;;0.60;0.60;;;;;;;;;;5056510;28;20116;-73
2024/01/05 01:09:52;;;;;;;0.80;0.80;;;;;;;;;;5056563;28;20036;-72
2024/01/05 01:12:17;;;;;;;0.70;0.70;;;;;;;;;;5073660;28;20029;-74
2024/01/05 01:14:42;;;;;;;0.68;0.63;;;;;;;;;;5074036;28;20033;-73
2024/01/05 01:17:08;;;;;;;2.05;0.80;;;;;;;;;;5055881;28;20021;-72
2024/01/05 01:19:33;;;;;;;1.75;0.60;;;;;;;;;;5055793;28;20033;-73
2024/01/05 01:21:58;;;;;;;0.85;0.85;;;;;;;;;;5074374;28;20032;-72
2024/01/05 01:24:24;;;;;;;0.77;0.77;;;;;;;;;;5073900;28;20072;-72
2024/01/05 01:26:50;;;;;;;1.00;0.90;;;;;;;;;;5056198;28;20033;-72
2024/01/05 01:29:15;;;;;;;1.00;0.80;;;;;;;;;;5073471;28;20370;-73
2024/01/05 01:31:53;;;;;;;0.80;0.75;;;;;;;;;;5080364;23;20044;-74
2024/01/05 01:34:18;;;;;;;0.90;0.80;;;;;;;;;;5061466;22;20052;-68
2024/01/05 01:36:44;;;;;;;0.85;0.85;;;;;;;;;;5035358;28;20101;-68
2024/01/05 01:39:11;;;;;;;0.80;0.80;;;;;;;;;;5053448;28;20458;-67
2024/01/05 01:42:09;;;;;;;1.10;0.88;;;;;;;;;;5062879;23;20364;-67
2024/01/05 01:44:37;;;;;;;0.82;0.82;;;;;;;;;;5057570;22;20217;-72
2024/01/05 01:47:02;;;;;;;0.88;0.88;;;;;;;;;;5055596;28;20386;-72
2024/01/05 01:49:28;;;;;;;0.90;0.90;;;;;;;;;;5074003;28;20028;-72
2024/01/05 01:51:53;;;;;;;1.40;0.80;;;;;;;;;;5055946;28;20040;-72
2024/01/05 01:54:19;;;;;;;1.00;1.00;;;;;;;;;;5073690;28;20358;-72
2024/01/05 01:56:45;;;;;;;1.00;0.80;;;;;;;;;;5055201;28;20031;-66
2024/01/05 01:59:10;;;;;;;0.90;0.80;;;;;;;;;;5073306;28;20033;-67
2024/01/05 02:01:36;;;;;;;0.90;0.90;;;;;;;;;;5072403;28;20040;-66
2024/01/05 02:04:03;;;;;;;0.80;0.80;;;;;;;;;;5073476;28;20032;-67
2024/01/05 02:06:28;;;;;;;1.27;0.85;;;;;;;;;;5072859;28;20064;-67
2024/01/05 02:08:54;;;;;;;0.85;0.82;;;;;;;;;;5072955;28;20063;-67
2024/01/05 02:11:19;;;;;;;0.85;0.73;;;;;;;;;;5072252;28;20044;-68
2024/01/05 02:13:45;;;;;;;0.73;0.73;;;;;;;;;;5053232;28;20477;-67
2024/01/05 02:16:11;;;;;;;1.00;1.00;;;;;;;;;;5071368;28;20032;-67
2024/01/05 02:18:36;;;;;;;0.70;0.70;;;;;;;;;;5071699;28;20497;-67
2024/01/05 02:21:03;;;;;;;1.13;0.93;;;;;;;;;;5071981;28;20490;-69
2024/01/05 02:23:30;;;;;;;0.95;0.95;;;;;;;;;;5071182;28;20039;-67
2024/01/05 02:25:56;;;;;;;0.98;0.88;;;;;;;;;;5053500;28;20033;-66
2024/01/05 02:28:22;;;;;;;0.98;0.88;;;;;;;;;;5072458;28;20660;-66
2024/01/05 02:30:47;;;;;;;1.00;0.98;;;;;;;;;;5075257;28;20486;-68
2024/01/05 02:33:13;;;;;;;2.17;1.02;;;;;;;;;;5057768;28;20024;-67
2024/01/05 02:35:38;;;;;;;1.20;1.10;;;;;;;;;;5074530;28;20020;-67
2024/01/05 02:38:05;;;;;;;0.82;0.82;;;;;;;;;;5057183;28;20474;-70
2024/01/05 02:40:30;;;;;;;1.27;1.13;;;;;;;;;;5074909;28;20063;-66
2024/01/05 02:42:55;;;;;;;0.95;0.90;;;;;;;;;;5075217;28;20415;-67
2024/01/05 02:45:21;;;;;;;1.17;1.08;;;;;;;;;;5075917;28;20102;-73
2024/01/05 02:47:48;;;;;;;1.15;1.02;;;;;;;;;;5099902;22;20052;-72
2024/01/05 02:50:14;;;;;;;1.10;1.00;;;;;;;;;;5088363;22;20052;-67
2024/01/05 02:52:39;;;;;;;0.93;0.90;;;;;;;;;;5057873;28;20111;-67
2024/01/05 02:55:07;;;;;;;1.08;1.00;;;;;;;;;;5058634;28;20036;-67
2024/01/05 02:57:32;;;;;;;1.10;1.00;;;;;;;;;;5076597;28;20056;-65
2024/01/05 02:59:57;;;;;;;1.15;1.05;;;;;;;;;;5076167;28;20056;-65
2024/01/05 03:02:23;;;;;;;1.00;1.00;;;;;;;;;;5058184;28;20474;-65
2024/01/05 03:04:50;;;;;;;1.23;1.13;;;;;;;;;;5075897;28;20490;-65
2024/01/05 03:07:16;;;;;;;1.10;1.00;;;;;;;;;;5058779;28;20033;-67
2024/01/05 03:09:41;;;;;;;1.10;1.00;;;;;;;;;;5076407;28;20454;-66
2024/01/05 03:12:07;;;;;;;0.90;0.90;;;;;;;;;;5075866;28;20033;-65
2024/01/05 03:14:33;;;;;;;1.10;1.00;;;;;;;;;;5075866;28;20024;-65
2024/01/05 03:16:58;;;;;;;1.05;0.93;;;;;;;;;;5076033;28;20082;-66
2024/01/05 03:19:23;;;;;;;1.08;1.08;;;;;;;;;;5075545;28;20029;-65
2024/01/05 03:21:49;;;;;;;1.13;1.02;;;;;;;;;;5057509;28;20033;-69
2024/01/05 03:24:15;;;;;;;1.45;1.35;;;;;;;;;;5058138;28;20040;-68
2024/01/05 03:26:42;;;;;;;1.20;1.10;;;;;;;;;;5076207;28;20028;-69
2024/01/05 03:29:08;;;;;;;2.67;1.27;;;;;;;;;;5075999;28;20506;-66
2024/01/05 03:31:33;;;;;;;1.40;1.17;;;;;;;;;;5075899;28;20024;-66
2024/01/05 03:34:00;;;;;;;1.20;1.10;;;;;;;;;;5075975;28;20367;-66
2024/01/05 03:36:25;;;;;;;1.25;1.13;;;;;;;;;;5075795;28;20043;-65
2024/01/05 03:38:50;;;;;;;1.30;1.20;;;;;;;;;;5075567;28;20029;-66
2024/01/05 03:41:16;;;;;;;1.67;1.13;;;;;;;;;;5057691;28;20032;-66
2024/01/05 03:43:41;;;;;;;1.67;1.08;;;;;;;;;;5075893;28;20111;-66
2024/01/05 03:46:13;;;;;;;0.88;0.88;;;;;;;;;;5075417;28;20028;-66
2024/01/05 03:48:38;;;;;;;2.05;1.20;;;;;;;;;;5075511;28;20036;-66
2024/01/05 03:51:04;;;;;;;1.00;1.00;;;;;;;;;;5074942;28;20040;-72
2024/01/05 03:53:30;;;;;;;1.30;1.20;;;;;;;;;;5103107;22;20257;-72
2024/01/05 03:55:58;;;;;;;1.35;1.25;;;;;;;;;;5074795;28;20102;-73
2024/01/05 03:58:25;;;;;;;1.27;1.17;;;;;;;;;;5075574;28;20035;-73
2024/01/05 04:00:51;;;;;;;1.58;1.00;;;;;;;;;;5074859;28;20036;-73
2024/01/05 04:06:25;;;;;;;1.65;1.10;;;;;;;;;;5075515;22;20147;-73
2024/01/05 04:08:52;;;;;;;1.45;1.35;;;;;;;;;;5075073;28;20113;-73
2024/01/05 04:11:21;;;;;;;1.58;1.35;;;;;;;;;;5074682;28;20447;-73
2024/01/05 04:13:47;;;;;;;1.42;1.15;;;;;;;;;;5056584;28;20048;-73
2024/01/05 04:16:14;;;;;;;1.33;0.93;;;;;;;;;;5075212;28;20036;-67
2024/01/05 04:18:40;;;;;;;1.90;1.13;;;;;;;;;;5074886;28;20028;-67
2024/01/05 04:21:05;;;;;;;1.33;1.23;;;;;;;;;;5074527;28;20039;-69
2024/01/05 04:23:31;;;;;;;1.40;1.30;;;;;;;;;;5056753;28;20082;-69
2024/01/05 04:25:58;;;;;;;1.48;1.33;;;;;;;;;;5074667;28;20040;-69
2024/01/05 04:28:23;;;;;;;1.40;1.30;;;;;;;;;;5074894;28;20047;-69
2024/01/05 04:30:48;;;;;;;1.33;1.23;;;;;;;;;;5056251;28;20041;-71
2024/01/05 04:33:14;;;;;;;1.23;1.13;;;;;;;;;;5074456;28;20417;-71
2024/01/05 04:35:39;;;;;;;1.20;1.20;;;;;;;;;;5073613;28;20417;-65
2024/01/05 04:38:04;;;;;;;1.77;1.27;;;;;;;;;;5073690;28;20028;-65
2024/01/05 04:40:30;;;;;;;1.55;1.45;;;;;;;;;;5073540;28;20092;-65
2024/01/05 04:42:55;;;;;;;1.35;1.20;;;;;;;;;;5072914;28;20024;-66
2024/01/05 04:45:20;;;;;;;1.67;1.58;;;;;;;;;;5055330;28;20068;-69
2024/01/05 04:47:46;;;;;;;1.25;1.25;;;;;;;;;;5056484;28;20070;-70
2024/01/05 04:50:12;;;;;;;1.17;1.15;;;;;;;;;;5074267;28;20486;-68
2024/01/05 04:52:38;;;;;;;1.95;1.65;;;;;;;;;;5072626;28;20052;-65
2024/01/05 04:55:04;;;;;;;1.60;1.50;;;;;;;;;;5055401;28;20532;-66
2024/01/05 04:57:29;;;;;;;1.60;1.48;;;;;;;;;;5055299;28;20393;-66
2024/01/05 04:59:55;;;;;;;1.63;1.52;;;;;;;;;;5073336;28;20638;-67
2024/01/05 05:02:21;;;;;;;2.35;1.83;;;;;;;;;;5073572;28;20116;-67
2024/01/05 05:04:46;;;;;;;1.58;1.38;;;;;;;;;;5073459;28;20120;-67
2024/01/05 05:07:11;;;;;;;1.60;1.50;;;;;;;;;;5055105;28;20055;-68
2024/01/05 05:09:38;;;;;;;1.73;1.63;;;;;;;;;;5073069;28;20173;-65
2024/01/05 05:12:04;;;;;;;1.58;1.48;;;;;;;;;;5073189;28;20038;-65
2024/01/05 05:14:30;;;;;;;1.67;1.40;;;;;;;;;;5073203;28;20466;-65
2024/01/05 05:16:55;;;;;;;1.30;1.20;;;;;;;;;;5055069;28;20031;-65
2024/01/05 05:19:20;;;;;;;2.03;1.63;;;;;;;;;;5072623;28;20038;-65
2024/01/05 05:21:46;;;;;;;1.20;1.10;;;;;;;;;;5054895;28;20037;-64
2024/01/05 05:24:11;;;;;;;1.27;1.15;;;;;;;;;;5073629;28;20040;-64
2024/01/05 05:26:37;;;;;;;1.58;1.27;;;;;;;;;;5074033;28;20040;-64
2024/01/05 05:29:02;;;;;;;1.40;1.30;;;;;;;;;;5055670;28;20028;-65
2024/01/05 05:31:28;;;;;;;1.48;1.30;;;;;;;;;;5073609;28;20428;-63
2024/01/05 05:33:53;;;;;;;2.22;1.20;;;;;;;;;;5074026;28;20056;-63
2024/01/05 05:36:19;;;;;;;2.75;1.60;;;;;;;;;;5074282;28;20036;-63
2024/01/05 05:38:44;;;;;;;1.50;1.40;;;;;;;;;;5073677;28;20443;-64
2024/01/05 05:41:09;;;;;;;1.50;1.40;;;;;;;;;;5056131;28;20433;-63
2024/01/05 05:43:36;;;;;;;1.58;1.48;;;;;;;;;;5073452;28;20510;-63
2024/01/05 05:46:01;;;;;;;1.42;1.33;;;;;;;;;;5055485;28;20127;-67
2024/01/05 05:48:27;;;;;;;1.50;1.40;;;;;;;;;;5055623;28;20097;-70
2024/01/05 05:50:52;;;;;;;1.60;1.50;;;;;;;;;;5073776;28;20043;-70
2024/01/05 05:53:17;;;;;;;1.58;1.48;;;;;;;;;;5073719;28;20524;-71
2024/01/05 05:55:43;;;;;;;1.50;1.40;;;;;;;;;;5073479;28;20488;-70
2024/01/05 05:58:08;;;;;;;1.40;1.30;;;;;;;;;;5056086;28;20036;-70
2024/01/05 06:00:35;;;;;;;1.75;1.42;;;;;;;;;;5055599;28;20033;-70
2024/01/05 06:03:00;;;;;;;1.38;1.30;;;;;;;;;;5075677;28;20117;-71
2024/01/05 06:05:26;;;;;;;1.50;1.30;;;;;;;;;;5045553;28;20076;-70
2024/01/05 06:07:51;;;;;;;1.48;1.38;;;;;;;;;;5039895;28;20036;-70
2024/01/05 06:10:17;;;;;;;1.27;1.17;;;;;;;;;;5057516;28;20029;-70
2024/01/05 06:12:42;;;;;;;1.40;1.30;;;;;;;;;;5073585;23;20063;-63
2024/01/05 06:15:08;;;;;;;1.40;1.30;;;;;;;;;;5076324;28;20071;-70
2024/01/05 06:17:34;;;;;;;2.03;1.70;;;;;;;;;;5076879;28;20028;-70
2024/01/05 06:19:59;;;;;;;1.58;1.48;;;;;;;;;;5076019;28;20029;-70
2024/01/05 06:22:25;;;;;;;1.42;1.33;;;;;;;;;;5075177;28;20033;-70
2024/01/05 06:24:50;;;;;;;2.17;1.98;;;;;;;;;;5076205;28;20107;-63
2024/01/05 06:27:16;;;;;;;2.67;2.03;;;;;;;;;;5058131;28;20075;-63
2024/01/05 06:29:41;;;;;;;2.00;1.80;;;;;;;;;;5075164;28;20020;-63
2024/01/05 06:32:08;;;;;;;2.63;1.85;;;;;;;;;;5073924;28;20491;-62
2024/01/05 06:34:33;;;;;;;3.05;2.22;;;;;;;;;;5075386;28;20513;-63
2024/01/05 06:36:59;;;;;;;2.97;2.35;;;;;;;;;;5057102;28;20016;-62
2024/01/05 06:39:24;;;;;;;2.47;2.28;;;;;;;;;;5041286;28;20037;-63
2024/01/05 06:41:52;;;;;;;4.55;2.67;;;;;;;;;;5075821;28;20025;-62
2024/01/05 06:44:17;;;;;;;132.43;45.60;;;;;;;;;;5057681;28;20597;-63
2024/01/05 06:46:42;;;;;;;66.35;25.63;;;;;;;;;;5057752;28;20025;-63
2024/01/05 06:49:08;;;;;;;8.88;4.80;;;;;;;;;;5059097;28;20032;-63
2024/01/05 06:51:37;;;;;;;2.55;2.35;;;;;;;;;;5076865;28;20083;-63
2024/01/05 06:54:02;;;;;;;2.58;2.33;;;;;;;;;;5076274;28;20471;-63
2024/01/05 06:56:31;;;;;;;4.35;3.10;;;;;;;;;;5041712;28;20032;-63
2024/01/05 06:58:58;;;;;;;2.00;1.80;;;;;;;;;;5076791;28;20037;-64
2024/01/05 07:01:24;;;;;;;1.60;1.50;;;;;;;;;;5076811;28;20030;-63
2024/01/05 07:03:49;;;;;;;2.88;1.60;;;;;;;;;;5076378;28;20091;-63
2024/01/05 07:06:14;;;;;;;2.88;2.00;;;;;;;;;;5076614;28;20404;-63
2024/01/05 07:08:40;;;;;;;2.35;1.83;;;;;;;;;;5076685;28;20067;-63
2024/01/05 07:11:05;;;;;;;3.63;3.33;;;;;;;;;;5074663;28;20032;-63
2024/01/05 07:13:31;;;;;;;9.38;8.57;;;;;;;;;;5075746;28;20482;-63
2024/01/05 07:15:56;;;;;;;4.30;3.90;;;;;;;;;;5075476;28;20489;-64
2024/01/05 07:18:22;;;;;;;360.92;145.40;;;;;;;;;;5058673;28;20044;-63
2024/01/05 07:20:48;;;;;;;185.27;72.97;;;;;;;;;;5075946;28;20024;-64
2024/01/05 07:23:13;;;;;;;137.13;52.22;;;;;;;;;;5076324;28;20104;-63
2024/01/05 07:25:39;;;;;;;9.50;5.70;;;;;;;;;;5041106;28;20027;-63
2024/01/05 07:28:04;;;;;;;3.50;2.70;;;;;;;;;;5076525;28;20470;-63
2024/01/05 07:30:30;;;;;;;3.17;2.78;;;;;;;;;;5075836;28;20107;-63
2024/01/05 07:32:55;;;;;;;4.68;3.22;;;;;;;;;;5075978;28;20024;-63
2024/01/05 07:35:21;;;;;;;6.88;5.53;;;;;;;;;;5086791;23;20084;-64
2024/01/05 07:37:50;;;;;;;6.65;4.85;;;;;;;;;;5073063;22;20407;-63
2024/01/05 07:40:15;;;;;;;4.70;3.78;;;;;;;;;;5033765;28;20036;-69
2024/01/05 07:42:40;;;;;;;4.10;3.70;;;;;;;;;;5035485;28;20380;-69
2024/01/05 07:45:06;;;;;;;4.57;3.85;;;;;;;;;;5035811;28;20155;-70
2024/01/05 07:47:31;;;;;;;3.88;3.53;;;;;;;;;;5035598;28;20037;-70
2024/01/05 07:49:57;;;;;;;18.20;10.30;;;;;;;;;;5035899;28;20021;-70
2024/01/05 07:52:23;;;;;;;4.40;3.88;;;;;;;;;;5035178;28;20155;-69
2024/01/05 07:54:48;;;;;;;11.40;8.95;;;;;;;;;;5035522;28;20032;-70
2024/01/05 07:57:14;;;;;;;7.65;6.85;;;;;;;;;;5035859;28;20026;-70
2024/01/05 07:59:39;;;;;;;25.38;19.52;;;;;;;;;;5035482;28;20117;-70
2024/01/05 08:02:06;;;;;;;5.03;4.60;;;;;;;;;;5035800;28;20029;-70
2024/01/05 08:04:31;;;;;;;4.15;3.15;;;;;;;;;;5035326;28;20029;-70
2024/01/05 08:06:57;;;;;;;2.83;2.50;;;;;;;;;;5017379;28;20064;-70
2024/01/05 08:09:22;;;;;;;3.38;2.28;;;;;;;;;;5035618;28;20041;-70
2024/01/05 08:11:47;;;;;;;2.00;1.90;;;;;;;;;;5035479;28;20063;-70
2024/01/05 08:14:13;;;;;;;2.38;2.17;;;;;;;;;;5035348;28;20033;-70
2024/01/05 08:16:38;;;;;;;4.70;4.30;;;;;;;;;;5034944;28;20030;-70
2024/01/05 08:19:04;;;;;;;3.63;3.40;;;;;;;;;;5035294;28;20033;-70
2024/01/05 08:21:30;;;;;;;2.60;2.40;;;;;;;;;;5034767;28;20132;-70
2024/01/05 08:23:55;;;;;;;3.22;2.95;;;;;;;;;;5017625;28;20052;-71
2024/01/05 08:26:20;;;;;;;4.25;3.42;;;;;;;;;;5034934;28;20033;-70
2024/01/05 08:28:46;;;;;;;3.47;3.03;;;;;;;;;;5016841;28;20029;-70
2024/01/05 08:31:11;;;;;;;2.72;2.53;;;;;;;;;;5034442;28;20033;-70
2024/01/05 08:33:37;;;;;;;2.30;1.98;;;;;;;;;;5034931;28;20032;-70
2024/01/05 08:36:02;;;;;;;2.65;2.40;;;;;;;;;;5035057;28;20028;-70
2024/01/05 08:38:28;;;;;;;2.75;2.55;;;;;;;;;;5034314;28;20076;-70
2024/01/05 08:40:53;;;;;;;2.95;2.58;;;;;;;;;;5034819;28;20388;-70
2024/01/05 08:43:20;;;;;;;3.05;2.75;;;;;;;;;;5039581;22;20052;-63
2024/01/05 08:45:46;;;;;;;3.45;3.20;;;;;;;;;;5072750;28;20031;-63
2024/01/05 08:48:11;;;;;;;3.55;3.28;;;;;;;;;;5074671;28;20033;-63
2024/01/05 08:50:37;;;;;;;5.63;4.65;;;;;;;;;;5056019;28;20115;-63
2024/01/05 08:53:03;;;;;;;3.10;2.90;;;;;;;;;;5074032;28;20029;-63
2024/01/05 08:55:28;;;;;;;3.00;2.50;;;;;;;;;;5074178;28;20058;-63
2024/01/05 08:57:54;;;;;;;7.18;4.90;;;;;;;;;;5056158;28;20055;-63
2024/01/05 09:00:19;;;;;;;12.68;7.70;;;;;;;;;;5074134;28;20039;-63
2024/01/05 09:02:45;;;;;;;3.60;2.90;;;;;;;;;;5073926;28;20060;-63
2024/01/05 09:05:10;;;;;;;6.50;4.80;;;;;;;;;;5074102;28;20028;-63
2024/01/05 09:07:35;;;;;;;6.15;4.90;;;;;;;;;;5074194;28;20028;-63
2024/01/05 09:10:01;;;;;;;2.65;2.45;;;;;;;;;;5074401;28;20454;-63
2024/01/05 09:12:27;;;;;;;2.78;2.22;;;;;;;;;;5056471;28;20043;-63
2024/01/05 09:14:52;;;;;;;3.30;3.10;;;;;;;;;;5073772;28;20021;-64
2024/01/05 09:17:18;;;;;;;3.83;3.53;;;;;;;;;;5073716;28;20033;-63
2024/01/05 09:19:43;;;;;;;3.15;2.85;;;;;;;;;;5056451;28;20021;-64
2024/01/05 09:22:10;;;;;;;3.00;2.80;;;;;;;;;;5073686;28;20033;-64
2024/01/05 09:24:36;;;;;;;4.32;3.97;;;;;;;;;;5074242;28;20036;-63
2024/01/05 09:27:02;;;;;;;4.63;4.22;;;;;;;;;;5073572;28;20028;-64
2024/01/05 09:29:28;;;;;;;4.70;3.03;;;;;;;;;;5074147;28;20032;-63
2024/01/05 09:31:53;;;;;;;194.70;92.63;;;;;;;;;;5073807;28;20033;-63
2024/01/05 09:34:19;;;;;;;78.93;39.97;;;;;;;;;;5073504;28;20428;-63
2024/01/05 09:36:44;;;;;;;28.88;16.33;;;;;;;;;;5074180;28;20051;-64
2024/01/05 09:39:13;;;;;;;69.78;40.70;;;;;;;;;;5080315;28;20029;-63
2024/01/05 09:41:42;;;;;;;113.70;58.85;;;;;;;;;;5062167;28;20028;-63
2024/01/05 09:44:10;;;;;;;22.80;12.52;;;;;;;;;;5080562;28;20041;-63
2024/01/05 09:46:37;;;;;;;26.38;14.07;;;;;;;;;;5080207;28;20036;-63
2024/01/05 09:49:06;;;;;;;25.08;13.35;;;;;;;;;;5080383;28;20109;-63
2024/01/05 09:51:32;;;;;;;29.20;18.52;;;;;;;;;;5080520;28;20039;-63
2024/01/05 09:53:57;;;;;;;38.30;21.60;;;;;;;;;;5079997;28;20021;-63
2024/01/05 09:56:25;;;;;;;6.13;5.55;;;;;;;;;;5080647;28;20457;-63
2024/01/05 09:58:51;;;;;;;37.13;26.60;;;;;;;;;;5080339;28;20441;-63
2024/01/05 10:01:30;;;;;;;126.20;72.38;;;;;;;;;;5080620;28;20039;-63
2024/01/05 10:03:56;;;;;;;73.15;43.92;;;;;;;;;;5062404;28;20043;-63
2024/01/05 10:06:22;;;;;;;119.97;76.85;;;;;;;;;;5080329;28;20348;-63
2024/01/05 10:08:50;;;;;;;25.77;19.48;;;;;;;;;;5079922;28;20035;-63
2024/01/05 10:11:26;;;;;;;30.08;21.35;;;;;;;;;;5061883;28;20032;-63
2024/01/05 10:13:56;;;;;;;11.63;10.45;;;;;;;;;;5080339;28;20119;-64
2024/01/05 10:16:24;;;;;;;11.73;9.07;;;;;;;;;;5080332;28;20021;-63
2024/01/05 10:18:49;;;;;;;17.20;12.00;;;;;;;;;;5079976;28;20027;-64
2024/01/05 10:21:15;;;;;;;52.78;32.75;;;;;;;;;;5079990;28;20115;-63
2024/01/05 10:23:43;;;;;;;31.70;17.52;;;;;;;;;;5080354;28;20035;-64
2024/01/05 10:26:19;;;;;;;9.98;7.57;;;;;;;;;;5079895;28;20039;-63
2024/01/05 10:28:44;;;;;;;20.67;12.57;;;;;;;;;;5080145;28;20036;-63
2024/01/05 10:31:18;;;;;;;11.20;9.35;;;;;;;;;;5080183;28;20040;-63
2024/01/05 10:34:02;;;;;;;19.80;12.43;;;;;;;;;;5061735;28;20390;-63
2024/01/05 10:36:27;;;;;;;18.50;11.10;;;;;;;;;;5045021;28;20497;-63
2024/01/05 10:38:52;;;;;;;17.73;11.00;;;;;;;;;;5079635;28;20024;-63
2024/01/05 10:41:19;;;;;;;15.23;9.52;;;;;;;;;;5079821;28;20051;-63
2024/01/05 10:43:45;;;;;;;11.80;8.55;;;;;;;;;;5061714;28;20040;-63
2024/01/05 10:46:14;;;;;;;7.35;5.65;;;;;;;;;;5080107;28;20028;-63
2024/01/05 10:48:39;;;;;;;7.97;5.10;;;;;;;;;;5077152;28;20490;-63
2024/01/05 10:51:06;;;;;;;5.65;4.80;;;;;;;;;;5076056;28;20024;-63
2024/01/05 10:53:32;;;;;;;5.05;4.53;;;;;;;;;;5076624;28;20092;-70
2024/01/05 10:55:58;;;;;;;7.15;4.95;;;;;;;;;;5076259;28;20371;-63
2024/01/05 10:58:24;;;;;;;14.45;8.55;;;;;;;;;;5076583;28;20036;-63
2024/01/05 11:00:52;;;;;;;11.32;6.45;;;;;;;;;;5041642;28;20023;-64
2024/01/05 11:03:24;;;;;;;12.00;7.88;;;;;;;;;;5076440;28;20074;-71
2024/01/05 11:05:49;;;;;;;8.00;5.35;;;;;;;;;;5079039;23;20056;-69
2024/01/05 11:08:33;;;;;;;14.75;8.18;;;;;;;;;;5076426;28;20032;-70
2024/01/05 11:11:08;;;;;;;20.10;11.52;;;;;;;;;;5076148;28;20040;-70
2024/01/05 11:13:39;;;;;;;12.10;7.53;;;;;;;;;;5076529;28;20024;-70
2024/01/05 11:16:05;;;;;;;10.73;6.00;;;;;;;;;;5076171;28;20385;-69
2024/01/05 11:18:42;;;;;;;10.23;6.13;;;;;;;;;;5076120;28;20029;-70
2024/01/05 11:21:17;;;;;;;15.05;8.60;;;;;;;;;;5076011;28;20081;-70
2024/01/05 11:23:43;;;;;;;12.07;7.10;;;;;;;;;;5075965;28;20033;-70
2024/01/05 11:26:27;;;;;;;14.32;8.68;;;;;;;;;;5058236;28;20043;-70
2024/01/05 11:28:52;;;;;;;11.13;6.85;;;;;;;;;;5076256;28;20037;-70
2024/01/05 11:31:37;;;;;;;11.93;6.65;;;;;;;;;;5075657;28;20078;-70
2024/01/05 11:34:02;;;;;;;12.18;7.03;;;;;;;;;;5075847;28;20020;-69
2024/01/05 11:36:46;;;;;;;12.52;7.57;;;;;;;;;;5076041;28;20039;-70
2024/01/05 11:39:33;;;;;;;22.27;12.07;;;;;;;;;;5076061;28;20032;-70
2024/01/05 11:41:59;;;;;;;10.55;7.38;;;;;;;;;;5074992;28;20055;-70
2024/01/05 11:44:36;;;;;;;13.35;8.07;;;;;;;;;;5075405;28;20020;-70
2024/01/05 11:47:02;;;;;;;11.90;7.88;;;;;;;;;;5075349;28;20078;-70
2024/01/05 11:49:38;;;;;;;10.25;6.60;;;;;;;;;;5075697;28;20028;-69
2024/01/05 11:52:04;;;;;;;12.73;7.60;;;;;;;;;;5057692;28;20029;-70
2024/01/05 11:54:30;;;;;;;14.98;8.65;;;;;;;;;;5075456;28;20078;-70
2024/01/05 11:57:02;;;;;;;13.50;8.55;;;;;;;;;;5075168;28;20017;-70
2024/01/05 11:59:27;;;;;;;13.10;7.65;;;;;;;;;;5075638;28;20032;-70
2024/01/05 12:01:53;;;;;;;12.60;8.35;;;;;;;;;;5074730;28;20036;-70
2024/01/05 12:04:22;;;;;;;9.38;7.30;;;;;;;;;;5057787;28;20031;-70
2024/01/05 12:06:53;;;;;;;7.60;5.43;;;;;;;;;;5056964;28;20060;-70
2024/01/05 12:09:22;;;;;;;6.22;5.32;;;;;;;;;;5057309;28;20424;-70
2024/01/05 12:11:47;;;;;;;7.50;5.32;;;;;;;;;;5075217;28;20138;-70
2024/01/05 12:14:28;;;;;;;8.35;5.55;;;;;;;;;;5075113;28;20039;-70
2024/01/05 12:17:10;;;;;;;7.47;6.10;;;;;;;;;;5074725;28;20509;-70
2024/01/05 12:19:36;;;;;;;10.18;6.80;;;;;;;;;;5056774;28;20020;-70
2024/01/05 12:22:02;;;;;;;7.82;6.10;;;;;;;;;;5075151;28;20031;-70
2024/01/05 12:24:28;;;;;;;7.70;6.13;;;;;;;;;;5074879;28;20177;-63
2024/01/05 12:26:53;;;;;;;9.30;6.20;;;;;;;;;;5100660;22;20063;-69
2024/01/05 12:29:19;;;;;;;29.40;25.55;;;;;;;;;;5073680;28;20029;-70
2024/01/05 12:31:46;;;;;;;17.13;15.20;;;;;;;;;;5074094;28;20036;-64
2024/01/05 12:34:14;;;;;;;14.45;11.07;;;;;;;;;;5074303;28;20031;-63
2024/01/05 12:36:40;;;;;;;55.63;45.50;;;;;;;;;;5056474;28;20035;-64
2024/01/05 12:39:11;;;;;;;8.32;6.80;;;;;;;;;;5074539;28;20107;-63
2024/01/05 12:41:39;;;;;;;8.50;5.78;;;;;;;;;;5074513;28;20032;-63
2024/01/05 12:44:07;;;;;;;8.10;6.40;;;;;;;;;;5074335;28;20123;-70
2024/01/05 12:46:39;;;;;;;12.68;10.00;;;;;;;;;;5074175;28;20043;-70
2024/01/05 12:49:16;;;;;;;10.68;7.50;;;;;;;;;;5074819;28;20028;-70
2024/01/05 12:51:46;;;;;;;11.45;8.48;;;;;;;;;;5074248;28;20119;-70
2024/01/05 12:54:12;;;;;;;7.15;6.45;;;;;;;;;;5040102;28;20025;-70
2024/01/05 12:56:37;;;;;;;7.45;6.15;;;;;;;;;;5074331;28;20032;-70
2024/01/05 12:59:03;;;;;;;7.10;5.72;;;;;;;;;;5074528;28;20097;-70
2024/01/05 13:01:29;;;;;;;10.50;8.45;;;;;;;;;;5074970;28;20043;-70
2024/01/05 13:03:56;;;;;;;33.22;21.15;;;;;;;;;;5074443;28;20032;-63
2024/01/05 13:06:22;;;;;;;24.95;18.15;;;;;;;;;;5074525;28;20040;-63
2024/01/05 13:08:49;;;;;;;10.23;8.20;;;;;;;;;;5056388;28;20411;-63
2024/01/05 13:11:17;;;;;;;11.48;7.95;;;;;;;;;;5056000;28;20177;-63
2024/01/05 13:16:16;;;;;;;12.88;7.45;;;;;;;;;;5012591;28;20042;-70
2024/01/05 13:18:41;;;;;;;16.40;10.18;;;;;;;;;;5014355;28;20030;-70
2024/01/05 13:21:07;;;;;;;21.17;12.10;;;;;;;;;;5014133;28;20037;-70
2024/01/05 13:23:33;;;;;;;35.80;18.63;;;;;;;;;;5050830;22;20466;-70
2024/01/05 13:25:58;;;;;;;9.88;6.93;;;;;;;;;;5073266;28;20060;-63
2024/01/05 13:28:23;;;;;;;11.60;8.15;;;;;;;;;;5056138;28;20029;-63
2024/01/05 13:30:49;;;;;;;17.45;11.15;;;;;;;;;;5073500;28;20039;-63
2024/01/05 13:33:14;;;;;;;11.93;9.10;;;;;;;;;;5073514;28;20035;-63
2024/01/05 13:35:40;;;;;;;14.77;10.57;;;;;;;;;;5073742;28;20016;-64
2024/01/05 13:38:05;;;;;;;15.10;10.20;;;;;;;;;;5055709;28;20029;-64
2024/01/05 13:40:30;;;;;;;25.77;15.13;;;;;;;;;;5073615;28;20078;-63
2024/01/05 13:42:56;;;;;;;21.73;13.60;;;;;;;;;;5055501;28;20037;-63
2024/01/05 13:45:21;;;;;;;22.15;14.05;;;;;;;;;;5073928;28;20036;-65
2024/01/05 13:47:47;;;;;;;22.20;13.95;;;;;;;;;;5055528;28;20037;-65
2024/01/05 13:50:12;;;;;;;20.58;14.63;;;;;;;;;;5073621;28;20031;-65
2024/01/05 13:52:38;;;;;;;41.50;20.95;;;;;;;;;;5073592;28;20490;-65
2024/01/05 13:55:03;;;;;;;32.35;16.83;;;;;;;;;;5055388;28;20029;-64
2024/01/05 13:57:29;;;;;;;18.67;11.30;;;;;;;;;;5056096;28;20041;-65
2024/01/05 13:59:54;;;;;;;18.30;11.75;;;;;;;;;;5074080;28;20020;-65
2024/01/05 14:02:19;;;;;;;22.10;13.18;;;;;;;;;;5073876;28;20082;-64
2024/01/05 14:04:45;;;;;;;22.52;13.02;;;;;;;;;;5073828;28;20426;-64
2024/01/05 14:07:11;;;;;;;29.35;16.92;;;;;;;;;;5073245;28;20031;-64
2024/01/05 14:09:36;;;;;;;21.10;13.00;;;;;;;;;;5055768;28;20413;-64
2024/01/05 14:12:02;;;;;;;22.65;17.05;;;;;;;;;;5054170;28;20024;-64
2024/01/05 14:14:27;;;;;;;17.67;11.70;;;;;;;;;;5072389;28;20040;-65
2024/01/05 14:16:53;;;;;;;20.42;16.23;;;;;;;;;;5054708;28;20035;-65
2024/01/05 14:19:18;;;;;;;28.90;21.02;;;;;;;;;;5072579;28;20033;-64
2024/01/05 14:21:43;;;;;;;18.38;15.65;;;;;;;;;;5072493;28;20073;-65
2024/01/05 14:24:09;;;;;;;25.90;21.17;;;;;;;;;;5073928;28;20037;-65
2024/01/05 14:26:36;;;;;;;47.17;35.05;;;;;;;;;;5076474;28;20032;-65
2024/01/05 14:29:02;;;;;;;176.93;120.32;;;;;;;;;;5076787;28;20040;-65
2024/01/05 14:31:33;;;;;;;125.10;80.95;;;;;;;;;;5076878;28;20036;-65
2024/01/05 14:34:00;;;;;;;127.50;79.65;;;;;;;;;;5077007;28;20028;-65
2024/01/05 14:36:26;;;;;;;68.20;42.15;;;;;;;;;;5076907;28;20028;-65
2024/01/05 14:38:51;;;;;;;186.55;120.90;;;;;;;;;;5076918;28;20048;-72